KBYL

Williamsburg-Whitley County Airport

Williamsburg, Kentucky, USA
METAR KBYL 170655Z AUTO 27003KT 4SM BKN011 05/05 A3016 RMK AO1
Observed Flight Rules
Dec-17 @ 06:55 UTC (34 minutes ago) Marginal Visual Flight Rules
Wind Visibility Clouds
270° at 3 knots 4 miles
  • Broken at 1,100' AGL
Temperatures Readings
Current 5°C / 41°F
Dewpoint 5°C / 41°F
Humidity 100%
Altimeter 30.16" Hg
Pressure 1021 hPa
Elevation 359
METAR KBYL 170655Z AUTO 27003KT 4SM BKN011 05/05 A3016 RMK AO1
Observed Flight Rules
Dec-17 @ 06:55 UTC
(34 minutes ago)
MVFR
Wind Visibility
270° at 3 knots 4 miles
Clouds
  • Broken at 1,100' AGL
Temperature Dewpoint
5°C / 41°F 5°C / 41°F
Humidity Altimeter Pressure
100% 30.16" Hg 1021 hPa